sensor_id;sensor_type;location;lat;lon;timestamp;P1;durP1;ratioP1;P2;durP2;ratioP2
59950;SDS011;45812;53.540;9.774;2023-11-21T00:01:49;23.08;;;8.90;;
59950;SDS011;45812;53.540;9.774;2023-11-21T00:04:14;20.80;;;8.68;;
59950;SDS011;45812;53.540;9.774;2023-11-21T00:06:40;20.13;;;7.97;;
59950;SDS011;45812;53.540;9.774;2023-11-21T00:09:06;19.52;;;8.38;;
59950;SDS011;45812;53.540;9.774;2023-11-21T00:11:33;21.27;;;8.93;;
59950;SDS011;45812;53.540;9.774;2023-11-21T00:13:58;22.48;;;8.20;;
59950;SDS011;45812;53.540;9.774;2023-11-21T00:16:23;23.63;;;9.20;;
59950;SDS011;45812;53.540;9.774;2023-11-21T00:18:50;26.85;;;10.25;;
59950;SDS011;45812;53.540;9.774;2023-11-21T00:21:16;22.88;;;9.57;;
59950;SDS011;45812;53.540;9.774;2023-11-21T00:23:41;22.95;;;8.90;;
59950;SDS011;45812;53.540;9.774;2023-11-21T00:26:06;23.88;;;8.93;;
59950;SDS011;45812;53.540;9.774;2023-11-21T00:28:32;19.88;;;8.93;;
59950;SDS011;45812;53.540;9.774;2023-11-21T00:30:57;23.33;;;8.23;;
59950;SDS011;45812;53.540;9.774;2023-11-21T00:33:22;24.10;;;8.35;;
59950;SDS011;45812;53.540;9.774;2023-11-21T00:35:48;13.55;;;6.50;;
59950;SDS011;45812;53.540;9.774;2023-11-21T00:38:13;14.65;;;6.45;;
59950;SDS011;45812;53.540;9.774;2023-11-21T00:40:38;18.42;;;6.60;;
59950;SDS011;45812;53.540;9.774;2023-11-21T00:43:03;15.82;;;6.50;;
59950;SDS011;45812;53.540;9.774;2023-11-21T00:45:29;12.63;;;5.72;;
59950;SDS011;45812;53.540;9.774;2023-11-21T00:47:54;16.58;;;6.85;;
59950;SDS011;45812;53.540;9.774;2023-11-21T00:50:19;17.88;;;7.03;;
59950;SDS011;45812;53.540;9.774;2023-11-21T00:52:44;17.05;;;7.63;;
59950;SDS011;45812;53.540;9.774;2023-11-21T00:55:10;19.33;;;8.50;;
59950;SDS011;45812;53.540;9.774;2023-11-21T00:57:37;19.23;;;8.02;;
59950;SDS011;45812;53.540;9.774;2023-11-21T01:00:02;18.55;;;8.40;;
59950;SDS011;45812;53.540;9.774;2023-11-21T01:02:32;18.70;;;8.20;;
59950;SDS011;45812;53.540;9.774;2023-11-21T01:04:57;21.23;;;9.20;;
59950;SDS011;45812;53.540;9.774;2023-11-21T01:07:22;21.70;;;9.73;;
59950;SDS011;45812;53.540;9.774;2023-11-21T01:09:48;20.33;;;9.38;;
59950;SDS011;45812;53.540;9.774;2023-11-21T01:12:13;23.30;;;10.77;;
59950;SDS011;45812;53.540;9.774;2023-11-21T01:14:38;21.02;;;9.27;;
59950;SDS011;45812;53.540;9.774;2023-11-21T01:17:04;19.52;;;8.52;;
59950;SDS011;45812;53.540;9.774;2023-11-21T01:19:30;17.98;;;7.53;;
59950;SDS011;45812;53.540;9.774;2023-11-21T01:21:55;17.70;;;7.30;;
59950;SDS011;45812;53.540;9.774;2023-11-21T01:24:22;13.15;;;6.47;;
59950;SDS011;45812;53.540;9.774;2023-11-21T01:26:48;15.80;;;7.18;;
59950;SDS011;45812;53.540;9.774;2023-11-21T01:29:13;19.45;;;8.13;;
59950;SDS011;45812;53.540;9.774;2023-11-21T01:31:40;14.77;;;7.15;;
59950;SDS011;45812;53.540;9.774;2023-11-21T01:34:05;20.60;;;7.95;;
59950;SDS011;45812;53.540;9.774;2023-11-21T01:36:31;18.23;;;8.30;;
59950;SDS011;45812;53.540;9.774;2023-11-21T01:38:57;16.85;;;7.50;;
59950;SDS011;45812;53.540;9.774;2023-11-21T01:41:24;19.80;;;7.32;;
59950;SDS011;45812;53.540;9.774;2023-11-21T01:43:51;19.67;;;7.63;;
59950;SDS011;45812;53.540;9.774;2023-11-21T01:46:18;20.83;;;9.05;;
59950;SDS011;45812;53.540;9.774;2023-11-21T01:48:45;18.98;;;8.00;;
59950;SDS011;45812;53.540;9.774;2023-11-21T01:51:10;20.58;;;7.90;;
59950;SDS011;45812;53.540;9.774;2023-11-21T01:53:36;17.77;;;7.25;;
59950;SDS011;45812;53.540;9.774;2023-11-21T01:56:01;14.88;;;6.90;;
59950;SDS011;45812;53.540;9.774;2023-11-21T01:58:27;18.33;;;7.50;;
59950;SDS011;45812;53.540;9.774;2023-11-21T02:00:52;16.73;;;6.15;;
59950;SDS011;45812;53.540;9.774;2023-11-21T02:03:19;14.02;;;6.13;;
59950;SDS011;45812;53.540;9.774;2023-11-21T02:05:45;14.50;;;5.70;;
59950;SDS011;45812;53.540;9.774;2023-11-21T02:08:11;15.18;;;6.57;;
59950;SDS011;45812;53.540;9.774;2023-11-21T02:10:36;15.38;;;7.00;;
59950;SDS011;45812;53.540;9.774;2023-11-21T02:13:02;14.60;;;6.70;;
59950;SDS011;45812;53.540;9.774;2023-11-21T02:15:28;12.43;;;5.90;;
59950;SDS011;45812;53.540;9.774;2023-11-21T02:17:54;12.98;;;6.00;;
59950;SDS011;45812;53.540;9.774;2023-11-21T02:20:20;11.45;;;5.50;;
59950;SDS011;45812;53.540;9.774;2023-11-21T02:22:55;10.95;;;5.22;;
59950;SDS011;45812;53.540;9.774;2023-11-21T02:25:25;10.32;;;5.50;;
59950;SDS011;45812;53.540;9.774;2023-11-21T02:30:24;10.02;;;5.28;;
59950;SDS011;45812;53.540;9.774;2023-11-21T02:32:57;9.30;;;5.18;;
59950;SDS011;45812;53.540;9.774;2023-11-21T02:35:22;11.85;;;5.82;;
59950;SDS011;45812;53.540;9.774;2023-11-21T02:37:48;11.32;;;5.72;;
59950;SDS011;45812;53.540;9.774;2023-11-21T02:40:13;12.07;;;5.95;;
59950;SDS011;45812;53.540;9.774;2023-11-21T02:42:42;13.02;;;6.18;;
59950;SDS011;45812;53.540;9.774;2023-11-21T02:45:08;12.15;;;5.78;;
59950;SDS011;45812;53.540;9.774;2023-11-21T02:47:33;10.48;;;4.80;;
59950;SDS011;45812;53.540;9.774;2023-11-21T02:49:59;11.05;;;5.10;;
59950;SDS011;45812;53.540;9.774;2023-11-21T02:52:24;9.25;;;5.10;;
59950;SDS011;45812;53.540;9.774;2023-11-21T02:54:50;9.32;;;4.43;;
59950;SDS011;45812;53.540;9.774;2023-11-21T02:57:15;8.23;;;4.50;;
59950;SDS011;45812;53.540;9.774;2023-11-21T02:59:40;10.00;;;4.68;;
59950;SDS011;45812;53.540;9.774;2023-11-21T03:02:05;10.13;;;4.70;;
59950;SDS011;45812;53.540;9.774;2023-11-21T03:04:33;8.07;;;4.68;;
59950;SDS011;45812;53.540;9.774;2023-11-21T03:06:59;9.77;;;4.80;;
59950;SDS011;45812;53.540;9.774;2023-11-21T03:09:25;8.05;;;4.50;;
59950;SDS011;45812;53.540;9.774;2023-11-21T03:11:51;10.93;;;4.63;;
59950;SDS011;45812;53.540;9.774;2023-11-21T03:14:17;7.78;;;4.35;;
59950;SDS011;45812;53.540;9.774;2023-11-21T03:16:42;9.20;;;4.35;;
59950;SDS011;45812;53.540;9.774;2023-11-21T03:19:09;9.43;;;4.22;;
59950;SDS011;45812;53.540;9.774;2023-11-21T03:21:34;6.88;;;4.10;;
59950;SDS011;45812;53.540;9.774;2023-11-21T03:24:00;11.07;;;5.18;;
59950;SDS011;45812;53.540;9.774;2023-11-21T03:26:25;10.88;;;5.00;;
59950;SDS011;45812;53.540;9.774;2023-11-21T03:28:50;12.75;;;5.63;;
59950;SDS011;45812;53.540;9.774;2023-11-21T03:31:18;8.77;;;4.28;;
59950;SDS011;45812;53.540;9.774;2023-11-21T03:33:44;9.95;;;4.78;;
59950;SDS011;45812;53.540;9.774;2023-11-21T03:36:10;7.80;;;4.68;;
59950;SDS011;45812;53.540;9.774;2023-11-21T03:38:36;9.30;;;4.35;;
59950;SDS011;45812;53.540;9.774;2023-11-21T03:41:01;8.10;;;4.88;;
59950;SDS011;45812;53.540;9.774;2023-11-21T03:43:27;10.40;;;4.68;;
59950;SDS011;45812;53.540;9.774;2023-11-21T03:45:52;13.80;;;5.80;;
59950;SDS011;45812;53.540;9.774;2023-11-21T03:48:17;10.00;;;4.90;;
59950;SDS011;45812;53.540;9.774;2023-11-21T03:50:43;11.55;;;5.07;;
59950;SDS011;45812;53.540;9.774;2023-11-21T03:53:08;11.85;;;5.40;;
59950;SDS011;45812;53.540;9.774;2023-11-21T03:55:33;10.18;;;4.65;;
59950;SDS011;45812;53.540;9.774;2023-11-21T03:57:58;11.25;;;5.43;;
59950;SDS011;45812;53.540;9.774;2023-11-21T04:00:24;9.77;;;5.10;;
59950;SDS011;45812;53.540;9.774;2023-11-21T04:02:51;7.97;;;4.53;;
59950;SDS011;45812;53.540;9.774;2023-11-21T04:05:17;10.13;;;4.93;;
59950;SDS011;45812;53.540;9.774;2023-11-21T04:07:42;8.23;;;5.32;;
59950;SDS011;45812;53.540;9.774;2023-11-21T04:10:08;9.55;;;4.95;;
59950;SDS011;45812;53.540;9.774;2023-11-21T04:12:34;10.52;;;5.00;;
59950;SDS011;45812;53.540;9.774;2023-11-21T04:15:00;9.48;;;5.07;;
59950;SDS011;45812;53.540;9.774;2023-11-21T04:17:25;10.75;;;4.75;;
59950;SDS011;45812;53.540;9.774;2023-11-21T04:19:51;7.18;;;4.15;;
59950;SDS011;45812;53.540;9.774;2023-11-21T04:22:16;10.02;;;4.97;;
59950;SDS011;45812;53.540;9.774;2023-11-21T04:24:41;10.05;;;5.28;;
59950;SDS011;45812;53.540;9.774;2023-11-21T04:27:06;9.10;;;4.68;;
59950;SDS011;45812;53.540;9.774;2023-11-21T04:29:32;10.98;;;5.13;;
59950;SDS011;45812;53.540;9.774;2023-11-21T04:31:57;11.68;;;4.90;;
59950;SDS011;45812;53.540;9.774;2023-11-21T04:34:22;9.73;;;5.22;;
59950;SDS011;45812;53.540;9.774;2023-11-21T04:36:47;11.48;;;6.10;;
59950;SDS011;45812;53.540;9.774;2023-11-21T04:39:14;13.02;;;5.13;;
59950;SDS011;45812;53.540;9.774;2023-11-21T04:41:40;10.45;;;5.28;;
59950;SDS011;45812;53.540;9.774;2023-11-21T04:44:05;8.95;;;5.38;;
59950;SDS011;45812;53.540;9.774;2023-11-21T04:46:31;7.65;;;4.70;;
59950;SDS011;45812;53.540;9.774;2023-11-21T04:48:57;9.38;;;4.95;;
59950;SDS011;45812;53.540;9.774;2023-11-21T04:51:22;10.60;;;5.50;;
59950;SDS011;45812;53.540;9.774;2023-11-21T04:53:48;10.75;;;5.50;;
59950;SDS011;45812;53.540;9.774;2023-11-21T04:56:13;11.40;;;5.20;;
59950;SDS011;45812;53.540;9.774;2023-11-21T04:58:38;10.00;;;5.30;;
59950;SDS011;45812;53.540;9.774;2023-11-21T05:01:05;14.75;;;5.93;;
59950;SDS011;45812;53.540;9.774;2023-11-21T05:03:30;11.95;;;6.05;;
59950;SDS011;45812;53.540;9.774;2023-11-21T05:05:56;10.80;;;5.63;;
59950;SDS011;45812;53.540;9.774;2023-11-21T05:08:21;9.70;;;5.35;;
59950;SDS011;45812;53.540;9.774;2023-11-21T05:10:47;11.60;;;5.20;;
59950;SDS011;45812;53.540;9.774;2023-11-21T05:13:13;11.93;;;5.68;;
59950;SDS011;45812;53.540;9.774;2023-11-21T05:15:42;13.93;;;5.88;;
59950;SDS011;45812;53.540;9.774;2023-11-21T05:18:07;9.30;;;5.32;;
59950;SDS011;45812;53.540;9.774;2023-11-21T05:20:32;10.13;;;5.53;;
59950;SDS011;45812;53.540;9.774;2023-11-21T05:22:58;10.88;;;5.57;;
59950;SDS011;45812;53.540;9.774;2023-11-21T05:25:23;9.98;;;5.60;;
59950;SDS011;45812;53.540;9.774;2023-11-21T05:27:49;10.65;;;5.13;;
59950;SDS011;45812;53.540;9.774;2023-11-21T05:30:14;9.63;;;5.30;;
59950;SDS011;45812;53.540;9.774;2023-11-21T05:32:40;10.13;;;5.70;;
59950;SDS011;45812;53.540;9.774;2023-11-21T05:35:08;14.10;;;6.38;;
59950;SDS011;45812;53.540;9.774;2023-11-21T05:37:37;14.18;;;5.40;;
59950;SDS011;45812;53.540;9.774;2023-11-21T05:40:04;9.35;;;5.05;;
59950;SDS011;45812;53.540;9.774;2023-11-21T05:42:31;12.85;;;5.90;;
59950;SDS011;45812;53.540;9.774;2023-11-21T05:45:00;12.10;;;5.47;;
59950;SDS011;45812;53.540;9.774;2023-11-21T05:47:35;9.10;;;5.05;;
59950;SDS011;45812;53.540;9.774;2023-11-21T05:50:01;10.80;;;5.70;;
59950;SDS011;45812;53.540;9.774;2023-11-21T05:52:26;10.05;;;5.38;;
59950;SDS011;45812;53.540;9.774;2023-11-21T05:54:52;11.85;;;5.03;;
59950;SDS011;45812;53.540;9.774;2023-11-21T05:57:17;11.75;;;5.55;;
59950;SDS011;45812;53.540;9.774;2023-11-21T05:59:42;13.77;;;5.68;;
59950;SDS011;45812;53.540;9.774;2023-11-21T06:02:08;13.73;;;5.28;;
59950;SDS011;45812;53.540;9.774;2023-11-21T06:04:33;12.38;;;5.80;;
59950;SDS011;45812;53.540;9.774;2023-11-21T06:06:58;9.05;;;4.75;;
59950;SDS011;45812;53.540;9.774;2023-11-21T06:09:23;10.35;;;5.32;;
59950;SDS011;45812;53.540;9.774;2023-11-21T06:11:50;12.93;;;5.72;;
59950;SDS011;45812;53.540;9.774;2023-11-21T06:14:15;9.98;;;5.20;;
59950;SDS011;45812;53.540;9.774;2023-11-21T06:16:42;8.70;;;4.90;;
59950;SDS011;45812;53.540;9.774;2023-11-21T06:19:10;10.85;;;5.57;;
59950;SDS011;45812;53.540;9.774;2023-11-21T06:21:35;11.48;;;5.32;;
59950;SDS011;45812;53.540;9.774;2023-11-21T06:24:00;11.45;;;5.90;;
59950;SDS011;45812;53.540;9.774;2023-11-21T06:26:26;9.70;;;5.35;;
59950;SDS011;45812;53.540;9.774;2023-11-21T06:28:52;11.05;;;5.93;;
59950;SDS011;45812;53.540;9.774;2023-11-21T06:31:17;10.63;;;5.40;;
59950;SDS011;45812;53.540;9.774;2023-11-21T06:33:43;13.90;;;5.97;;
59950;SDS011;45812;53.540;9.774;2023-11-21T06:36:08;11.45;;;5.32;;
59950;SDS011;45812;53.540;9.774;2023-11-21T06:38:36;11.73;;;5.72;;
59950;SDS011;45812;53.540;9.774;2023-11-21T06:41:01;10.25;;;5.32;;
59950;SDS011;45812;53.540;9.774;2023-11-21T06:43:27;10.15;;;5.68;;
59950;SDS011;45812;53.540;9.774;2023-11-21T06:45:52;10.95;;;5.72;;
59950;SDS011;45812;53.540;9.774;2023-11-21T06:48:18;9.38;;;5.13;;
59950;SDS011;45812;53.540;9.774;2023-11-21T06:50:43;9.90;;;5.55;;
59950;SDS011;45812;53.540;9.774;2023-11-21T06:53:08;12.38;;;5.80;;
59950;SDS011;45812;53.540;9.774;2023-11-21T06:55:34;12.63;;;5.05;;
59950;SDS011;45812;53.540;9.774;2023-11-21T06:58:00;10.45;;;5.47;;
59950;SDS011;45812;53.540;9.774;2023-11-21T07:00:25;10.10;;;5.68;;
59950;SDS011;45812;53.540;9.774;2023-11-21T07:02:52;9.93;;;5.75;;
59950;SDS011;45812;53.540;9.774;2023-11-21T07:05:18;9.77;;;4.95;;
59950;SDS011;45812;53.540;9.774;2023-11-21T07:07:46;12.52;;;5.40;;
59950;SDS011;45812;53.540;9.774;2023-11-21T07:10:11;11.98;;;5.90;;
59950;SDS011;45812;53.540;9.774;2023-11-21T07:12:37;10.98;;;5.20;;
59950;SDS011;45812;53.540;9.774;2023-11-21T07:15:03;12.88;;;6.68;;
59950;SDS011;45812;53.540;9.774;2023-11-21T07:17:30;11.90;;;5.72;;
59950;SDS011;45812;53.540;9.774;2023-11-21T07:19:56;13.07;;;5.97;;
59950;SDS011;45812;53.540;9.774;2023-11-21T07:22:21;12.20;;;5.60;;
59950;SDS011;45812;53.540;9.774;2023-11-21T07:24:49;11.82;;;6.00;;
59950;SDS011;45812;53.540;9.774;2023-11-21T07:27:18;12.93;;;5.97;;
59950;SDS011;45812;53.540;9.774;2023-11-21T07:29:43;9.23;;;5.70;;
59950;SDS011;45812;53.540;9.774;2023-11-21T07:32:09;10.52;;;5.72;;
59950;SDS011;45812;53.540;9.774;2023-11-21T07:34:34;12.68;;;5.43;;
59950;SDS011;45812;53.540;9.774;2023-11-21T07:37:01;11.32;;;5.60;;
59950;SDS011;45812;53.540;9.774;2023-11-21T07:39:26;12.85;;;5.70;;
59950;SDS011;45812;53.540;9.774;2023-11-21T07:41:52;11.32;;;5.85;;
59950;SDS011;45812;53.540;9.774;2023-11-21T07:44:17;15.18;;;6.20;;
59950;SDS011;45812;53.540;9.774;2023-11-21T07:46:42;9.77;;;5.57;;
59950;SDS011;45812;53.540;9.774;2023-11-21T07:49:07;11.40;;;5.65;;
59950;SDS011;45812;53.540;9.774;2023-11-21T07:51:34;9.50;;;5.22;;
59950;SDS011;45812;53.540;9.774;2023-11-21T07:53:59;8.82;;;5.18;;
59950;SDS011;45812;53.540;9.774;2023-11-21T07:56:24;10.95;;;5.82;;
59950;SDS011;45812;53.540;9.774;2023-11-21T07:58:49;9.68;;;5.95;;
59950;SDS011;45812;53.540;9.774;2023-11-21T08:01:15;13.60;;;6.57;;
59950;SDS011;45812;53.540;9.774;2023-11-21T08:03:40;10.73;;;5.28;;
59950;SDS011;45812;53.540;9.774;2023-11-21T08:06:05;9.70;;;5.68;;
59950;SDS011;45812;53.540;9.774;2023-11-21T08:08:31;9.77;;;5.30;;
59950;SDS011;45812;53.540;9.774;2023-11-21T08:10:57;11.35;;;5.55;;
59950;SDS011;45812;53.540;9.774;2023-11-21T08:13:25;9.05;;;5.20;;
59950;SDS011;45812;53.540;9.774;2023-11-21T08:15:55;9.18;;;5.15;;
59950;SDS011;45812;53.540;9.774;2023-11-21T08:18:21;7.97;;;4.50;;
59950;SDS011;45812;53.540;9.774;2023-11-21T08:20:47;8.73;;;4.88;;
59950;SDS011;45812;53.540;9.774;2023-11-21T08:23:16;8.95;;;5.00;;
59950;SDS011;45812;53.540;9.774;2023-11-21T08:25:44;9.68;;;4.85;;
59950;SDS011;45812;53.540;9.774;2023-11-21T08:28:10;9.40;;;5.18;;
59950;SDS011;45812;53.540;9.774;2023-11-21T08:30:36;10.55;;;5.13;;
59950;SDS011;45812;53.540;9.774;2023-11-21T08:33:01;9.70;;;4.55;;
59950;SDS011;45812;53.540;9.774;2023-11-21T08:35:28;10.63;;;5.50;;
59950;SDS011;45812;53.540;9.774;2023-11-21T08:37:53;9.82;;;4.85;;
59950;SDS011;45812;53.540;9.774;2023-11-21T08:40:19;10.07;;;5.10;;
59950;SDS011;45812;53.540;9.774;2023-11-21T08:42:45;9.40;;;4.60;;
59950;SDS011;45812;53.540;9.774;2023-11-21T08:45:11;10.48;;;4.80;;
59950;SDS011;45812;53.540;9.774;2023-11-21T08:47:37;7.57;;;4.50;;
59950;SDS011;45812;53.540;9.774;2023-11-21T08:50:03;9.82;;;5.20;;
59950;SDS011;45812;53.540;9.774;2023-11-21T08:52:29;9.35;;;4.32;;
59950;SDS011;45812;53.540;9.774;2023-11-21T08:54:54;8.48;;;4.57;;
59950;SDS011;45812;53.540;9.774;2023-11-21T08:57:22;9.25;;;4.78;;
59950;SDS011;45812;53.540;9.774;2023-11-21T08:59:48;6.63;;;4.43;;
59950;SDS011;45812;53.540;9.774;2023-11-21T09:02:13;11.23;;;4.95;;
59950;SDS011;45812;53.540;9.774;2023-11-21T09:04:38;9.63;;;5.60;;
59950;SDS011;45812;53.540;9.774;2023-11-21T09:07:03;10.43;;;4.70;;
59950;SDS011;45812;53.540;9.774;2023-11-21T09:09:29;11.35;;;4.93;;
59950;SDS011;45812;53.540;9.774;2023-11-21T09:11:55;8.30;;;4.45;;
59950;SDS011;45812;53.540;9.774;2023-11-21T09:14:20;7.68;;;4.22;;
59950;SDS011;45812;53.540;9.774;2023-11-21T09:16:45;10.15;;;4.78;;
59950;SDS011;45812;53.540;9.774;2023-11-21T09:19:11;9.18;;;4.85;;
59950;SDS011;45812;53.540;9.774;2023-11-21T09:21:39;10.23;;;4.80;;
59950;SDS011;45812;53.540;9.774;2023-11-21T09:24:04;8.50;;;4.55;;
59950;SDS011;45812;53.540;9.774;2023-11-21T09:26:29;7.88;;;4.53;;
59950;SDS011;45812;53.540;9.774;2023-11-21T09:28:55;9.02;;;4.65;;
59950;SDS011;45812;53.540;9.774;2023-11-21T09:31:21;9.38;;;5.25;;
59950;SDS011;45812;53.540;9.774;2023-11-21T09:33:47;8.20;;;4.60;;
59950;SDS011;45812;53.540;9.774;2023-11-21T09:36:13;7.15;;;4.18;;
59950;SDS011;45812;53.540;9.774;2023-11-21T09:38:41;9.95;;;3.97;;
59950;SDS011;45812;53.540;9.774;2023-11-21T09:41:11;9.93;;;4.47;;
59950;SDS011;45812;53.540;9.774;2023-11-21T09:44:00;7.40;;;3.70;;
59950;SDS011;45812;53.540;9.774;2023-11-21T09:46:32;4.78;;;3.22;;
59950;SDS011;45812;53.540;9.774;2023-11-21T09:48:58;5.60;;;3.50;;
59950;SDS011;45812;53.540;9.774;2023-11-21T09:51:25;9.95;;;3.45;;
59950;SDS011;45812;53.540;9.774;2023-11-21T09:53:55;4.80;;;3.20;;
59950;SDS011;45812;53.540;9.774;2023-11-21T09:56:23;6.38;;;3.67;;
59950;SDS011;45812;53.540;9.774;2023-11-21T09:58:52;5.38;;;3.40;;
59950;SDS011;45812;53.540;9.774;2023-11-21T10:01:18;3.63;;;2.88;;
59950;SDS011;45812;53.540;9.774;2023-11-21T10:03:44;4.88;;;2.60;;
59950;SDS011;45812;53.540;9.774;2023-11-21T10:06:09;3.25;;;2.28;;
59950;SDS011;45812;53.540;9.774;2023-11-21T10:08:39;4.07;;;2.80;;
59950;SDS011;45812;53.540;9.774;2023-11-21T10:11:05;5.47;;;2.35;;
59950;SDS011;45812;53.540;9.774;2023-11-21T10:13:33;2.80;;;2.47;;
59950;SDS011;45812;53.540;9.774;2023-11-21T10:15:59;3.78;;;2.45;;
59950;SDS011;45812;53.540;9.774;2023-11-21T10:18:25;2.63;;;2.30;;
59950;SDS011;45812;53.540;9.774;2023-11-21T10:20:51;3.03;;;2.13;;
59950;SDS011;45812;53.540;9.774;2023-11-21T10:23:18;3.78;;;2.45;;
59950;SDS011;45812;53.540;9.774;2023-11-21T10:25:44;5.35;;;2.83;;
59950;SDS011;45812;53.540;9.774;2023-11-21T10:28:09;5.32;;;2.67;;
59950;SDS011;45812;53.540;9.774;2023-11-21T10:30:36;2.65;;;2.45;;
59950;SDS011;45812;53.540;9.774;2023-11-21T10:33:02;3.63;;;2.25;;
59950;SDS011;45812;53.540;9.774;2023-11-21T10:36:06;3.83;;;2.70;;
59950;SDS011;45812;53.540;9.774;2023-11-21T10:38:26;4.03;;;2.20;;
59950;SDS011;45812;53.540;9.774;2023-11-21T10:40:52;2.92;;;2.30;;
59950;SDS011;45812;53.540;9.774;2023-11-21T10:43:19;5.03;;;1.80;;
59950;SDS011;45812;53.540;9.774;2023-11-21T10:45:49;5.38;;;1.83;;
59950;SDS011;45812;53.540;9.774;2023-11-21T10:48:14;2.63;;;1.85;;
59950;SDS011;45812;53.540;9.774;2023-11-21T10:50:40;4.70;;;2.13;;
59950;SDS011;45812;53.540;9.774;2023-11-21T10:53:06;2.60;;;1.98;;
59950;SDS011;45812;53.540;9.774;2023-11-21T10:55:32;2.63;;;2.13;;
59950;SDS011;45812;53.540;9.774;2023-11-21T10:57:59;2.55;;;2.20;;
59950;SDS011;45812;53.540;9.774;2023-11-21T11:00:29;3.55;;;2.10;;
59950;SDS011;45812;53.540;9.774;2023-11-21T11:02:55;4.05;;;2.03;;
59950;SDS011;45812;53.540;9.774;2023-11-21T11:05:22;5.38;;;2.35;;
59950;SDS011;45812;53.540;9.774;2023-11-21T11:07:52;3.03;;;1.90;;
59950;SDS011;45812;53.540;9.774;2023-11-21T11:10:26;1.95;;;1.65;;
59950;SDS011;45812;53.540;9.774;2023-11-21T11:12:53;3.22;;;2.10;;
59950;SDS011;45812;53.540;9.774;2023-11-21T11:15:19;6.38;;;2.20;;
59950;SDS011;45812;53.540;9.774;2023-11-21T11:17:45;3.38;;;2.25;;
59950;SDS011;45812;53.540;9.774;2023-11-21T11:20:11;2.78;;;2.42;;
59950;SDS011;45812;53.540;9.774;2023-11-21T11:22:48;2.75;;;2.50;;
59950;SDS011;45812;53.540;9.774;2023-11-21T11:30:56;2.58;;;2.38;;
59950;SDS011;45812;53.540;9.774;2023-11-21T11:33:39;4.72;;;2.67;;
59950;SDS011;45812;53.540;9.774;2023-11-21T11:38:52;2.60;;;2.40;;
59950;SDS011;45812;53.540;9.774;2023-11-21T11:41:24;3.13;;;2.35;;
59950;SDS011;45812;53.540;9.774;2023-11-21T11:43:51;2.72;;;2.38;;
59950;SDS011;45812;53.540;9.774;2023-11-21T11:46:18;3.88;;;2.08;;
59950;SDS011;45812;53.540;9.774;2023-11-21T11:48:46;2.08;;;1.88;;
59950;SDS011;45812;53.540;9.774;2023-11-21T11:51:13;5.70;;;2.38;;
59950;SDS011;45812;53.540;9.774;2023-11-21T11:53:41;2.55;;;1.95;;
59950;SDS011;45812;53.540;9.774;2023-11-21T11:58:55;3.38;;;2.45;;
59950;SDS011;45812;53.540;9.774;2023-11-21T12:01:22;3.75;;;2.85;;
59950;SDS011;45812;53.540;9.774;2023-11-21T12:06:39;2.30;;;2.10;;
59950;SDS011;45812;53.540;9.774;2023-11-21T12:09:06;8.43;;;2.38;;
59950;SDS011;45812;53.540;9.774;2023-11-21T12:11:31;3.15;;;2.08;;
59950;SDS011;45812;53.540;9.774;2023-11-21T12:13:57;3.33;;;2.30;;
59950;SDS011;45812;53.540;9.774;2023-11-21T12:16:24;3.25;;;2.40;;
59950;SDS011;45812;53.540;9.774;2023-11-21T12:18:52;3.90;;;2.00;;
59950;SDS011;45812;53.540;9.774;2023-11-21T12:21:19;8.50;;;2.78;;
59950;SDS011;45812;53.540;9.774;2023-11-21T12:23:45;2.53;;;2.30;;
59950;SDS011;45812;53.540;9.774;2023-11-21T12:26:12;4.80;;;2.40;;
59950;SDS011;45812;53.540;9.774;2023-11-21T12:28:37;4.03;;;2.90;;
59950;SDS011;45812;53.540;9.774;2023-11-21T12:31:03;3.03;;;2.40;;
59950;SDS011;45812;53.540;9.774;2023-11-21T12:33:29;5.57;;;2.33;;
59950;SDS011;45812;53.540;9.774;2023-11-21T12:35:55;2.77;;;2.27;;
59950;SDS011;45812;53.540;9.774;2023-11-21T12:38:22;5.03;;;2.08;;
59950;SDS011;45812;53.540;9.774;2023-11-21T12:40:49;2.28;;;2.08;;
59950;SDS011;45812;53.540;9.774;2023-11-21T12:43:15;3.33;;;2.30;;
59950;SDS011;45812;53.540;9.774;2023-11-21T12:45:42;4.47;;;2.10;;
59950;SDS011;45812;53.540;9.774;2023-11-21T12:48:08;3.28;;;1.85;;
59950;SDS011;45812;53.540;9.774;2023-11-21T12:50:36;2.53;;;2.25;;
59950;SDS011;45812;53.540;9.774;2023-11-21T12:53:06;3.85;;;2.33;;
59950;SDS011;45812;53.540;9.774;2023-11-21T12:55:41;2.58;;;2.35;;
59950;SDS011;45812;53.540;9.774;2023-11-21T13:00:45;6.55;;;2.63;;
59950;SDS011;45812;53.540;9.774;2023-11-21T13:03:12;3.65;;;2.30;;
59950;SDS011;45812;53.540;9.774;2023-11-21T13:05:42;3.00;;;2.38;;
59950;SDS011;45812;53.540;9.774;2023-11-21T13:08:12;2.63;;;2.20;;
59950;SDS011;45812;53.540;9.774;2023-11-21T13:10:39;5.15;;;2.78;;
59950;SDS011;45812;53.540;9.774;2023-11-21T13:13:07;7.38;;;2.90;;
59950;SDS011;45812;53.540;9.774;2023-11-21T13:15:38;3.67;;;2.55;;
59950;SDS011;45812;53.540;9.774;2023-11-21T13:18:06;2.92;;;2.03;;
59950;SDS011;45812;53.540;9.774;2023-11-21T13:20:32;3.22;;;1.95;;
59950;SDS011;45812;53.540;9.774;2023-11-21T13:22:57;2.65;;;2.30;;
59950;SDS011;45812;53.540;9.774;2023-11-21T13:25:24;3.47;;;2.05;;
59950;SDS011;45812;53.540;9.774;2023-11-21T13:27:55;4.50;;;2.00;;
59950;SDS011;45812;53.540;9.774;2023-11-21T13:30:20;2.35;;;2.15;;
59950;SDS011;45812;53.540;9.774;2023-11-21T13:32:52;3.05;;;2.40;;
59950;SDS011;45812;53.540;9.774;2023-11-21T13:35:22;2.47;;;2.20;;
59950;SDS011;45812;53.540;9.774;2023-11-21T13:38:07;4.15;;;2.38;;
59950;SDS011;45812;53.540;9.774;2023-11-21T13:40:35;2.22;;;1.95;;
59950;SDS011;45812;53.540;9.774;2023-11-21T13:43:11;3.33;;;2.38;;
59950;SDS011;45812;53.540;9.774;2023-11-21T13:45:40;3.42;;;2.28;;
59950;SDS011;45812;53.540;9.774;2023-11-21T13:48:06;5.03;;;2.40;;
59950;SDS011;45812;53.540;9.774;2023-11-21T13:50:36;5.15;;;2.92;;
59950;SDS011;45812;53.540;9.774;2023-11-21T13:53:02;3.38;;;2.45;;
59950;SDS011;45812;53.540;9.774;2023-11-21T13:55:33;3.10;;;2.80;;
59950;SDS011;45812;53.540;9.774;2023-11-21T13:58:00;4.88;;;2.35;;
59950;SDS011;45812;53.540;9.774;2023-11-21T14:00:25;7.28;;;2.60;;
59950;SDS011;45812;53.540;9.774;2023-11-21T14:03:06;3.25;;;2.70;;
59950;SDS011;45812;53.540;9.774;2023-11-21T14:05:41;5.35;;;2.70;;
59950;SDS011;45812;53.540;9.774;2023-11-21T14:08:07;2.75;;;2.13;;
59950;SDS011;45812;53.540;9.774;2023-11-21T14:10:33;5.85;;;2.55;;
59950;SDS011;45812;53.540;9.774;2023-11-21T14:13:05;4.40;;;2.17;;
59950;SDS011;45812;53.540;9.774;2023-11-21T14:15:31;4.30;;;2.70;;
59950;SDS011;45812;53.540;9.774;2023-11-21T14:17:57;2.90;;;2.15;;
59950;SDS011;45812;53.540;9.774;2023-11-21T14:20:24;3.58;;;2.10;;
59950;SDS011;45812;53.540;9.774;2023-11-21T14:22:50;5.20;;;2.67;;
59950;SDS011;45812;53.540;9.774;2023-11-21T14:25:15;7.75;;;2.53;;
59950;SDS011;45812;53.540;9.774;2023-11-21T14:27:42;4.70;;;2.22;;
59950;SDS011;45812;53.540;9.774;2023-11-21T14:30:07;6.20;;;2.47;;
59950;SDS011;45812;53.540;9.774;2023-11-21T14:32:33;5.35;;;2.17;;
59950;SDS011;45812;53.540;9.774;2023-11-21T14:34:58;3.17;;;2.35;;
59950;SDS011;45812;53.540;9.774;2023-11-21T14:37:24;2.95;;;2.58;;
59950;SDS011;45812;53.540;9.774;2023-11-21T14:39:49;5.75;;;2.55;;
59950;SDS011;45812;53.540;9.774;2023-11-21T14:42:14;4.30;;;2.60;;
59950;SDS011;45812;53.540;9.774;2023-11-21T14:44:40;3.13;;;2.50;;
59950;SDS011;45812;53.540;9.774;2023-11-21T14:47:07;6.82;;;2.97;;
59950;SDS011;45812;53.540;9.774;2023-11-21T14:49:40;4.23;;;2.33;;
59950;SDS011;45812;53.540;9.774;2023-11-21T14:52:19;3.20;;;2.53;;
59950;SDS011;45812;53.540;9.774;2023-11-21T14:55:03;4.65;;;2.70;;
59950;SDS011;45812;53.540;9.774;2023-11-21T14:57:45;3.22;;;2.53;;